Extreme weather reports worldwide

Thunderstorm

Station
 
Location
 
Name
 
Wind
Knots
Gust
Knots
Vis
SM
Temp/Dew
C
Baro
inHg
METAR
 
FAR KFAR Fargo, US Hector International Airport 13 18 10 24/15 29.85 KFAR 232102Z 05013G18KT 10SM VCTS CLR 24/16 A2985 RMK AO2 LTG DSNT E TSE2056 T02440156
KJKJ Moorhead, US Moorhead Municipal Airport 12 17 10 27/9 29.87 KJKJ 232055Z AUTO 02012G17KT 10SM VCTS CLR 27/09 A2987 RMK AO2 LTG DSNT NW THRU SE
BQN TJBQ Aguadilla, PR Rafael Hernandez Airport 12 2 26/23 29.95 TJBQ 232101Z 02012KT 2SM +FC +TSRA SCT016 BKN033 BKN044 26/23 A2995 RMK TSB1943 WATER SPOUT LTG DSNT ALQDS
EOH SKMD Medellín, CO Enrique Olaya Herrera Airport 12 6.21 25/16 30.04 SKMD 232000Z 19012KT 9999 TS VCSH SCT035CB BKN080 25/16 A3004 RMK CB VCSH SE/NW
SJO MROC San Jose, CR Juan Santamaria International Airport 10 4.97 23/20 29.96 MROC 232100Z 11010KT 8000 -TSRA FEW010CB BKN020 23/20 A2996 TEMPO 3000 TSRA

Station
 
Location
 
Name
 
Wind
Knots
Gust
Knots
Vis
SM
Temp/Dew
C
Baro
inHg
METAR
 
TUD GOTT Tambacounda, SN Tambacounda Airport 10 4.35 26/24 29.88 GOTT 232000Z 28010KT 250V310 7000 -TSRA BKN013 SCT026CB 26/24 Q1012 RMK CB N
KVVV Ortonville, US Ortonville Municipal Martinson Field 9 10 / 29.82 KVVV 232055Z AUTO 11009KT 10SM VCTS CLR A2982 RMK AO2 LTG DSNT NE
KGHW Glenwood, US Glenwood Municipal Airport 9 10 25/14 29.87 KGHW 232055Z AUTO 15009KT 10SM TS CLR 25/14 A2987 RMK AO2 LTG DSNT ALQDS
MFM VMMC Macau, MO Macau International Airport 9 6.21 26/25 29.82 VMMC 232030Z 34009KT 9999 -TSRA FEW012 FEW018CB SCT025 BKN048 26/25 Q1010 NOSIG
GOP VEGK Gorakhpur, IN Gorakhpur Airport 9 3.11 25/25 29.59 VEGK 232030Z 12009KT 5000 BR-TSRA BKN006 FEW020CB SCT022 BKN090 25/25 Q1002 NOSIG
CNX VTCC Chiang Mai, TH Chiang Mai International Airport 9 0.87 23/23 29.82 VTCC 232100Z 15009KT 1400 R36/1800 +TSRA FEW010 FEW025CB OVC030 23/23 Q1010 BECMG TL2150 5000 TSRA
HKG VHHH Hong Kong, HK Hong Kong International Airport 9 4.35 27/26 29.82 VHHH 232100Z 32009KT 7000 VCTS SHRA FEW008 FEW012CB SCT025 27/26 Q1010 TEMPO 3500 -TSRA SHRA FEW010CB SCT025
LIRE Pomezia, IT Pratica Di Mare Air Base 9 3.73 19/18 29.91 LIRE 231955Z 34009KT 6000 -TSRA FEW018 FEW022CB SCT040 19/18 Q1013 RETS RMK BKN VIS MIN 6000 WIND THR13 02011KT WIND THR31 35012KT WHT
CUN MMUN Cancún, MX Cancún International Airport 8 7 28/25 29.86 MMUN 232104Z 26008KT 7SM TS BKN015CB BKN250 28/25 A2986 RMK 8/903 TSB02
TGU MHTG Tegucigalpa, HN Toncontín International Airport 8 6.21 28/20 29.97 MHTG 232102Z 06008KT 9999 VCTS SCT030TCU FEW032CB 28/20 Q1015 A2997 NOSIG
KGDB Granite Falls, US Granite Falls Municipal-Lenzen-Roe Memorial Field 8 10 30/13 29.86 KGDB 232055Z AUTO 19008KT 10SM VCTS CLR 30/14 A2986 RMK AO2 LTG DSNT N T03000137
FFM KFFM Fergus Falls, US Fergus Falls Municipal Airport - Einar Mickelson Field 8 10 27/15 29.84 KFFM 232055Z AUTO 07008KT 10SM VCTS CLR 27/15 A2984 RMK AO2 LTG DSNT SE AND NW
GUA MGGT Guatemala City, GT La Aurora Airport 8 6.21 28/15 30.18 MGGT 232100Z 03008KT 9999 TS FEW020TCU FEW024CB 28/15 Q1022 A3018 FEW200 CB/TS/PCPN E/ESE/SE TCU S
DTL KDTL Detroit Lakes, US Detroit Lakes Airport - Wething Field 8 10 25/11 29.89 KDTL 232055Z AUTO 08008KT 10SM VCTS 25/11 A2989 RMK AO2 LTG DSNT S AND W
SDQ MDSD Santo Domingo, DO Las Américas International Airport 8 6.21 32/25 29.85 MDSD 232000Z 15008KT 9999 TS FEW016CB SCT018 BKN070 32/25 Q1011 CB/NE/E/SE/S
PUJ MDPC Punta Cana, DO Punta Cana International Airport 8 4.35 25/24 29.91 MDPC 232000Z 14008KT 7000 -TSRA FEW016CB BKN018 OVC070 25/24 Q1013 CB/NE/E/SW/NW
KMOX Morris, US Morris Municipal - Charlie Schmidt Airport 7 10 27/9 29.84 KMOX 232055Z AUTO 13007KT 10SM VCTS CLR 27/09 A2984 RMK AO2 LTG DSNT NE
PTY MPTO Tocumen, PA Tocumen International Airport 7 6.21 29/24 29.79 MPTO 232100Z 16007KT 9999 TS SCT017CB SCT090 29/24 Q1009 TEMPO 8000 TSRA
PAC MPMG Albrook, PA Marcos A. Gelabert International Airport 7 5.59 29/25 29.79 MPMG 232100Z 17007KT 9000 TS VCSH SCT016CB BKN080 29/25 Q1009 TEMPO 8000 TSRA
EFL LGKF Kefallinia Island, GR Kefallinia Airport 7 4.35 23/23 29.94 LGKF 232050Z 11007KT 7000 +TSRA FEW012 SCT016CB BKN020 23/23 Q1014
K0R4 7 10 22/22 29.76 K0R4 232055Z AUTO 06007KT 10SM -VCTSRA SCT050 SCT065 OVC100 23/22 A2976 RMK AO2 LTG DSNT SE AND S P0012 60025 T02270220
KADC Wadena, US Wadena Municipal Airport 7 10 26/15 29.87 KADC 232056Z AUTO 07007KT 10SM TS CLR 26/15 A2987 RMK AO2 LTG DSNT S AND N
BVH SBVH Vilhena, BR Brigadeiro Camarão Airport 6 2.8 28/19 30.00 SBVH 232000Z 02006KT 4500 TS FU FEW035CB BKN100 28/19 Q1016
AXN KAXN Alexandria, US Chandler Field 6 8 21/16 29.88 KAXN 232053Z AUTO 11006KT 8SM -TSRA FEW075 FEW090 BKN110 22/17 A2988 RMK AO2 LTG DSNT SW RAB45 TSB02E17B40 SLP120 P0001 60002 T02170167 58010
PUY LDPL Pula, HR Pula Airport 6 4.97 18/17 29.82 LDPL 232100Z 05006KT 020V080 8000 TSRA FEW025CB SCT029 BKN040 18/17 Q1010 BECMG NSW SCT035
CLO SKCL Cali, CO Alfonso Bonilla Aragon International Airport 6 6.21 28/18 29.92 SKCL 232100Z 32006KT 9999 TS SCT030CB SCT120 28/18 A2992 NOSIG RMK CB / SE
KAQP Appleton, US Appleton Municipal Airport 6 10 29/11 29.82 KAQP 232053Z AUTO 10006KT 10SM VCTS CLR 29/11 A2982 RMK AO2 LTG DSNT N AND NE
GOA LIMJ Genova, IT Genoa Cristoforo Colombo Airport 6 2.49 20/19 29.82 LIMJ 232050Z 11006KT 080V140 4000 TSRA SCT014 FEW022CB 20/19 Q1010
ZIG GOGG Ziguinchor, SN Ziguinchor Airport 6 4.97 29/26 29.88 GOGG 232000Z 10006KT 8000 -TSRA FEW015TCU FEW030CB 29/26 Q1012
PGO KPSO Pagosa Springs, US Stevens Field 6 10 25/-6 30.29 KPSO 232055Z AUTO 29006KT 10SM VCTS CLR 25/M06 A3029 RMK AO2 T02521065
BOY DFOO Bobo Dioulasso, BF Bobo Dioulasso Airport 6 6.21 25/24 29.94 DFOO 232000Z 08006KT 9999 TS FEW016 FEW033CB 25/24 Q1014
KHCD Hutchinson, US Hutchinson Municipal Butler Field 5 10 28/16 29.89 KHCD 232055Z AUTO 17005KT 10SM VCTS CLR 29/16 A2989 RMK AO2 LTG DSNT W T02850162
HOG MUHG Holguin, CU Frank Pais International Airport 5 4.97 26/24 29.85 MUHG 232050Z 08005KT 040V100 8000 VCTS SCT030CB BKN075 26/24 Q1011
KBDH 4 10 28/13 29.89 KBDH 232055Z AUTO 16004KT 10SM VCTS CLR 28/13 A2989 RMK AO2 LTG DSNT NW THRU NE
LCC LIBN IT Lecce Galatina Air Base 4 4.97 23/23 29.88 LIBN 232034Z 14004KT 8000 -TSRA FEW020CB SCT025 23/23 Q1012 RMK BKN BKN080 VIS MIN 8000 WIND THR14 14004KT WIND THR32 17007KT BLU
SYQ MRPV San Jose, CR Tobias Bolanos International Airport 4 3.11 19/19 29.98 MRPV 232100Z 12004KT 5000 RA VCTS FEW010CB FEW035 BKN100 19/19 A2998 RETSRA NOSIG
PEN WMKP Penang, MY Penang International Airport 4 4.35 25/24 29.82 WMKP 232030Z 02004KT 350V050 7000 TSRA FEW010 FEW017CB SCT024 25/24 Q1010 NOSIG
FCO LIRF Rome, IT Leonardo da Vinci–Fiumicino Airport 4 6.21 18/17 29.91 LIRF 232050Z 16004KT 130V200 9999 VCTS FEW015CB SCT040 18/17 Q1013 NOSIG
MGMT 4 6.21 32/25 MGMT 232100Z 18004KT 9999 TS FEW025CB SCT200 32/25 CB/TS E
BDS LIBR Brindisi, IT Brindisi – Salento Airport 4 4.97 20/18 29.88 LIBR 232050Z 32004KT 250V020 8000 -TSRA FEW020CB SCT030 20/18 Q1012 RERA
KD39 4 10 23/18 29.87 KD39 232055Z AUTO 09004KT 10SM TS SCT120 24/18 A2987 RMK AO2 LTG DSNT SE W AND NW T02390182
OXB GGOV Bissau, GW Osvaldo Vieira International Airport 4 6.21 27/23 29.88 GGOV 232000Z 32004KT 9999 TS FEW014 FEW020CB 27/23 Q1012 NOSIG
NDJ FTTJ N'Djamena, TD N'Djamena International Airport 4 4.97 29/25 29.82 FTTJ 232000Z 16004KT 8000 TS FEW040CB 29/25 Q1010 NOSIG
KETH Wheaton, US Wheaton Municipal Airport 4 10 25/14 29.85 KETH 232053Z AUTO 03004KT 10SM VCTS CLR 25/14 A2985 RMK AO2 LTG DSNT E
LIBV Gioia Del Colle (BA), IT Gioia Del Colle Air Base 4 6.21 20/17 29.91 LIBV 231955Z 34004KT 9999 VCTS FEW030CB 20/17 Q1013 RMK BKN BKN240 VIS MIN 9999 WIND THR32 33002KT WIND THR14 36004KT BLU